createdAt,value
2022-08-05T00:01:36.467Z,25.11
2022-08-05T00:04:17.757Z,25.10
2022-08-05T00:06:47.304Z,25.07
2022-08-05T00:09:19.832Z,25.06
2022-08-05T00:11:56.199Z,25.01
2022-08-05T00:14:31.403Z,25.00
2022-08-05T00:17:01.675Z,25.01
2022-08-05T00:19:32.831Z,24.92
2022-08-05T00:22:02.214Z,24.98
2022-08-05T00:24:30.627Z,24.95
2022-08-05T00:27:01.265Z,24.97
2022-08-05T00:29:37.610Z,24.93
2022-08-05T00:32:12.362Z,24.88
2022-08-05T00:35:03.369Z,24.85
2022-08-05T00:37:50.355Z,24.80
2022-08-05T00:40:27.550Z,24.72
2022-08-05T00:42:59.764Z,24.68
2022-08-05T00:45:38.823Z,24.63
2022-08-05T00:48:12.075Z,24.65
2022-08-05T00:50:44.264Z,24.68
2022-08-05T00:54:01.401Z,24.62
2022-08-05T00:56:02.685Z,24.51
2022-08-05T00:58:33.051Z,24.43
2022-08-05T01:01:02.606Z,24.38
2022-08-05T01:03:37.462Z,24.26
2022-08-05T01:06:05.967Z,24.23
2022-08-05T01:08:43.117Z,24.17
2022-08-05T01:11:22.118Z,24.03
2022-08-05T01:14:08.698Z,23.91
2022-08-05T01:16:41.560Z,23.82
2022-08-05T01:19:36.775Z,23.76
2022-08-05T01:22:28.320Z,23.67
2022-08-05T01:25:40.020Z,23.60
2022-08-05T01:28:27.652Z,23.62
2022-08-05T01:31:02.880Z,23.61
2022-08-05T01:33:35.971Z,23.57
2022-08-05T01:36:13.224Z,23.51
2022-08-05T01:38:48.438Z,23.43
2022-08-05T01:41:21.979Z,23.32
2022-08-05T01:43:53.400Z,23.35
2022-08-05T01:46:42.963Z,23.48
2022-08-05T01:49:24.215Z,23.46
2022-08-05T01:51:59.258Z,23.30
2022-08-05T01:54:32.807Z,23.11
2022-08-05T01:58:09.489Z,23.04
2022-08-05T01:59:53.725Z,23.09
2022-08-05T02:02:26.259Z,23.09
2022-08-05T02:05:01.245Z,23.01
2022-08-05T02:07:32.126Z,22.88
2022-08-05T02:10:03.273Z,22.88
2022-08-05T02:12:39.760Z,22.80
2022-08-05T02:15:14.380Z,22.84
2022-08-05T02:18:28.292Z,22.79
2022-08-05T02:20:51.265Z,22.73
2022-08-05T02:23:24.882Z,22.59
2022-08-05T02:25:54.222Z,22.47
2022-08-05T02:28:28.995Z,22.32
2022-08-05T02:31:06.036Z,22.28
2022-08-05T02:33:40.781Z,22.33
2022-08-05T02:36:15.611Z,22.28
2022-08-05T02:38:53.192Z,22.33
2022-08-05T02:41:23.703Z,22.18
2022-08-05T02:44:02.747Z,22.16
2022-08-05T02:46:43.890Z,22.11
2022-08-05T02:49:26.848Z,22.01
2022-08-05T02:52:02.724Z,21.97
2022-08-05T02:54:35.958Z,21.96
2022-08-05T02:57:10.150Z,21.91
2022-08-05T02:59:57.621Z,21.95
2022-08-05T03:02:30.783Z,22.06
2022-08-05T03:04:59.961Z,22.04
2022-08-05T03:07:40.315Z,22.04
2022-08-05T03:10:22.002Z,21.95
2022-08-05T03:12:53.686Z,21.88
2022-08-05T03:15:23.369Z,21.81
2022-08-05T03:17:56.015Z,21.81
2022-08-05T03:20:26.422Z,21.76
2022-08-05T03:22:57.682Z,21.72
2022-08-05T03:25:33.269Z,21.76
2022-08-05T03:28:18.562Z,21.88
2022-08-05T03:30:48.967Z,21.92
2022-08-05T03:33:18.954Z,21.94
2022-08-05T03:35:48.496Z,21.96
2022-08-05T03:38:32.917Z,21.90
2022-08-05T03:41:04.063Z,21.94
2022-08-05T03:44:08.815Z,21.87
2022-08-05T03:46:30.064Z,21.90
2022-08-05T03:49:02.255Z,21.82
2022-08-05T03:52:38.456Z,21.78
2022-08-05T03:55:51.036Z,21.72
2022-08-05T03:57:35.158Z,21.72
2022-08-05T04:00:15.591Z,21.76
2022-08-05T04:02:51.961Z,21.76
2022-08-05T04:05:33.997Z,21.81
2022-08-05T04:08:05.819Z,21.79
2022-08-05T04:10:51.591Z,21.77
2022-08-05T04:13:21.688Z,21.79
2022-08-05T04:16:02.973Z,21.77
2022-08-05T04:18:34.464Z,21.86
2022-08-05T04:21:05.331Z,21.98
2022-08-05T04:24:04.979Z,22.10
2022-08-05T04:26:23.462Z,22.27
2022-08-05T04:28:52.115Z,22.36
2022-08-05T04:31:20.816Z,22.46
2022-08-05T04:33:54.924Z,22.53
2022-08-05T04:36:45.485Z,22.58
2022-08-05T04:39:14.819Z,22.57
2022-08-05T04:41:42.982Z,22.62
2022-08-05T04:44:13.728Z,22.66
2022-08-05T04:46:41.829Z,22.74
2022-08-05T04:49:15.330Z,22.77
2022-08-05T04:51:45.567Z,22.82
2022-08-05T04:54:14.930Z,22.89
2022-08-05T04:56:43.692Z,22.97
2022-08-05T04:59:22.442Z,23.02
2022-08-05T05:02:07.542Z,23.11
2022-08-05T05:04:49.865Z,23.20
2022-08-05T05:07:23.928Z,23.26
2022-08-05T05:09:57.705Z,23.37
2022-08-05T05:12:27.415Z,23.45
2022-08-05T05:14:55.897Z,23.55
2022-08-05T05:17:55.400Z,23.63
2022-08-05T05:20:13.732Z,23.69
2022-08-05T05:22:44.145Z,23.75
2022-08-05T05:25:16.659Z,23.82
2022-08-05T05:27:53.737Z,23.89
2022-08-05T05:30:29.508Z,23.91
2022-08-05T05:33:08.805Z,24.01
2022-08-05T05:35:45.586Z,24.13
2022-08-05T05:38:22.715Z,24.23
2022-08-05T05:40:56.164Z,24.28
2022-08-05T05:43:57.360Z,24.36
2022-08-05T05:46:17.598Z,24.46
2022-08-05T05:48:48.477Z,24.55
2022-08-05T05:51:21.296Z,24.66
2022-08-05T05:53:57.239Z,24.74
2022-08-05T05:56:32.432Z,24.82
2022-08-05T05:59:05.267Z,24.87
2022-08-05T06:01:38.026Z,24.95
2022-08-05T06:04:08.368Z,25.04
2022-08-05T06:06:41.682Z,25.18
2022-08-05T06:09:17.729Z,25.28
2022-08-05T06:11:59.932Z,25.30
2022-08-05T06:14:30.707Z,25.38
2022-08-05T06:16:59.279Z,25.42
2022-08-05T06:19:35.242Z,25.52
2022-08-05T06:22:04.006Z,25.57
2022-08-05T06:24:33.980Z,25.63
2022-08-05T06:27:04.076Z,25.69
2022-08-05T06:29:49.492Z,25.74
2022-08-05T06:32:25.393Z,25.88
2022-08-05T06:34:56.331Z,25.94
2022-08-05T06:37:57.286Z,25.96
2022-08-05T06:40:18.237Z,26.01
2022-08-05T06:42:51.879Z,26.09
2022-08-05T06:45:44.839Z,26.20
2022-08-05T06:48:36.988Z,26.26
2022-08-05T06:50:58.689Z,26.35
2022-08-05T06:53:29.233Z,26.46
2022-08-05T06:56:00.837Z,26.60
2022-08-05T06:58:36.440Z,26.67
2022-08-05T07:01:06.787Z,26.72
2022-08-05T07:03:35.493Z,26.77
2022-08-05T07:06:05.864Z,26.81
2022-08-05T07:08:42.710Z,26.83
2022-08-05T07:11:15.323Z,26.97
2022-08-05T07:14:01.559Z,27.11
2022-08-05T07:17:58.981Z,27.19
2022-08-05T07:22:29.102Z,27.37
2022-08-05T07:24:59.658Z,27.38
2022-08-05T07:27:57.490Z,27.36
2022-08-05T07:30:33.315Z,27.52
2022-08-05T07:33:05.199Z,27.58
2022-08-05T07:36:04.593Z,27.59
2022-08-05T07:38:33.312Z,27.63
2022-08-05T07:42:07.407Z,27.71
2022-08-05T07:43:56.632Z,27.83
2022-08-05T07:46:26.608Z,27.91
2022-08-05T07:49:01.472Z,27.96
2022-08-05T07:51:40.554Z,28.04
2022-08-05T07:54:10.543Z,28.12
2022-08-05T07:57:01.556Z,28.20
2022-08-05T07:59:38.271Z,28.28
2022-08-05T08:02:10.655Z,28.35
2022-08-05T08:04:46.574Z,28.43
2022-08-05T08:07:22.791Z,28.50
2022-08-05T08:09:54.922Z,28.57
2022-08-05T08:12:36.873Z,28.65
2022-08-05T08:15:15.038Z,28.71
2022-08-05T08:17:50.759Z,28.89
2022-08-05T08:20:59.730Z,28.94
2022-08-05T08:23:59.798Z,29.02
2022-08-05T08:25:59.879Z,29.10
2022-08-05T08:28:36.394Z,29.14
2022-08-05T08:31:14.569Z,29.27
2022-08-05T08:33:46.934Z,29.36
2022-08-05T08:36:38.691Z,29.43
2022-08-05T08:39:15.598Z,29.51
2022-08-05T08:41:52.697Z,29.58
2022-08-05T08:45:18.391Z,29.64
2022-08-05T08:48:06.205Z,29.73
2022-08-05T08:50:30.988Z,29.82
2022-08-05T08:53:08.015Z,29.94
2022-08-05T08:56:04.459Z,30.14
2022-08-05T08:58:36.982Z,30.25
2022-08-05T09:01:16.648Z,30.29
2022-08-05T09:03:54.440Z,30.38
2022-08-05T09:06:29.741Z,30.42
2022-08-05T09:09:00.578Z,30.43
2022-08-05T09:11:53.637Z,30.50
2022-08-05T09:14:57.192Z,30.56
2022-08-05T09:17:09.649Z,30.67
2022-08-05T09:20:01.896Z,30.81
2022-08-05T09:22:31.314Z,30.90
2022-08-05T09:25:02.193Z,30.96
2022-08-05T09:28:03.830Z,31.07
2022-08-05T09:30:30.522Z,31.10
2022-08-05T09:33:04.597Z,31.15
2022-08-05T09:35:34.545Z,31.19
2022-08-05T09:38:16.749Z,31.27
2022-08-05T09:40:52.742Z,31.28
2022-08-05T09:43:40.883Z,31.34
2022-08-05T09:46:27.527Z,31.44
2022-08-05T09:49:08.105Z,31.58
2022-08-05T09:51:48.862Z,31.57
2022-08-05T09:54:30.645Z,31.61
2022-08-05T09:57:01.493Z,31.66
2022-08-05T09:59:35.203Z,31.73
2022-08-05T10:02:05.998Z,31.86
2022-08-05T10:04:39.741Z,31.94
2022-08-05T10:07:20.563Z,31.96
2022-08-05T10:10:14.362Z,32.12
2022-08-05T10:12:49.382Z,32.24
2022-08-05T10:15:24.013Z,32.36
2022-08-05T10:18:16.703Z,32.48
2022-08-05T10:20:48.592Z,32.46
2022-08-05T10:23:34.321Z,32.42
2022-08-05T10:26:14.303Z,32.54
2022-08-05T10:28:45.114Z,32.54
2022-08-05T10:32:54.989Z,32.57
2022-08-05T10:34:03.391Z,32.69
2022-08-05T10:36:32.166Z,32.84
2022-08-05T10:39:11.535Z,32.85
2022-08-05T10:41:48.371Z,32.90
2022-08-05T10:44:20.343Z,32.99
2022-08-05T10:46:51.093Z,33.05
2022-08-05T10:49:27.590Z,33.08
2022-08-05T10:52:05.039Z,33.09
2022-08-05T10:55:05.174Z,33.13
2022-08-05T10:57:35.015Z,33.17
2022-08-05T11:00:20.052Z,33.21
2022-08-05T11:03:24.371Z,33.29
2022-08-05T11:06:08.460Z,33.36
2022-08-05T11:09:32.013Z,33.47
2022-08-05T11:12:54.279Z,33.51
2022-08-05T11:16:00.174Z,33.64
2022-08-05T11:18:30.047Z,33.78
2022-08-05T11:21:02.095Z,33.81
2022-08-05T11:24:03.948Z,33.91
2022-08-05T11:26:33.391Z,34.02
2022-08-05T11:29:12.538Z,34.17
2022-08-05T11:31:57.340Z,34.34
2022-08-05T11:34:39.717Z,34.50
2022-08-05T11:38:29.278Z,34.58
2022-08-05T11:40:02.702Z,34.53
2022-08-05T11:42:37.840Z,34.48
2022-08-05T11:45:26.799Z,34.61
2022-08-05T11:47:59.561Z,34.64
2022-08-05T11:50:28.699Z,34.66
2022-08-05T11:52:58.319Z,34.69
2022-08-05T11:55:31.819Z,34.97
2022-08-05T11:58:09.906Z,35.25
2022-08-05T12:00:44.098Z,35.23
2022-08-05T12:03:28.930Z,35.36
2022-08-05T12:06:02.147Z,35.48
2022-08-05T12:08:32.683Z,35.71
2022-08-05T12:11:06.276Z,35.96
2022-08-05T12:13:48.933Z,36.15
2022-08-05T12:16:26.961Z,36.08
2022-08-05T12:18:56.053Z,36.15
2022-08-05T12:21:26.746Z,36.48
2022-08-05T12:24:04.827Z,36.64
2022-08-05T12:26:35.503Z,36.75
2022-08-05T12:29:05.630Z,36.79
2022-08-05T12:31:45.884Z,36.92
2022-08-05T12:34:23.445Z,36.87
2022-08-05T12:36:54.537Z,37.17
2022-08-05T12:39:34.615Z,37.25
2022-08-05T12:42:14.318Z,36.58
2022-08-05T12:44:44.625Z,36.86
2022-08-05T12:47:17.782Z,36.66
2022-08-05T12:50:03.594Z,36.97
2022-08-05T12:52:39.230Z,37.13
2022-08-05T12:55:23.506Z,37.57
2022-08-05T12:58:49.099Z,37.66
2022-08-05T13:02:05.043Z,37.60
2022-08-05T13:03:38.921Z,37.71
2022-08-05T13:06:13.000Z,37.83
2022-08-05T13:08:41.773Z,38.19
2022-08-05T13:12:01.179Z,38.18
2022-08-05T13:14:25.038Z,38.36
2022-08-05T13:17:09.285Z,38.13
2022-08-05T13:19:40.296Z,38.38
2022-08-05T13:22:27.704Z,38.14
2022-08-05T13:25:00.858Z,38.45
2022-08-05T13:27:38.167Z,38.44
2022-08-05T13:30:35.066Z,38.76
2022-08-05T13:32:57.043Z,38.17
2022-08-05T13:35:47.331Z,38.32
2022-08-05T13:38:30.552Z,38.62
2022-08-05T13:41:00.297Z,38.91
2022-08-05T13:43:45.723Z,39.11
2022-08-05T13:46:30.745Z,39.04
2022-08-05T13:49:11.688Z,38.87
2022-08-05T13:51:46.166Z,38.89
2022-08-05T13:54:16.935Z,38.91
2022-08-05T13:56:50.819Z,39.05
2022-08-05T13:59:24.085Z,39.55
2022-08-05T14:01:58.414Z,39.51
2022-08-05T14:04:50.069Z,39.73
2022-08-05T14:07:25.715Z,39.67
2022-08-05T14:10:12.118Z,40.09
2022-08-05T14:12:42.735Z,39.78
2022-08-05T14:16:05.218Z,40.45
2022-08-05T14:18:01.111Z,40.76
2022-08-05T14:20:30.783Z,41.03
2022-08-05T14:23:00.836Z,41.17
2022-08-05T14:25:30.789Z,40.97
2022-08-05T14:27:58.952Z,40.93
2022-08-05T14:30:28.262Z,40.91
2022-08-05T14:32:58.833Z,40.24
2022-08-05T14:35:37.015Z,40.73
2022-08-05T14:38:32.315Z,41.11
2022-08-05T14:41:06.906Z,41.08
2022-08-05T14:43:58.883Z,41.47
2022-08-05T14:46:28.794Z,41.11
2022-08-05T14:49:03.490Z,41.29
2022-08-05T14:51:35.967Z,41.09
2022-08-05T14:54:27.172Z,41.71
2022-08-05T14:56:55.793Z,42.05
2022-08-05T14:59:23.912Z,41.94
2022-08-05T15:01:53.747Z,42.43
2022-08-05T15:04:22.734Z,41.71
2022-08-05T15:06:51.695Z,42.09
2022-08-05T15:09:53.441Z,41.86
2022-08-05T15:12:11.441Z,42.21
2022-08-05T15:14:48.429Z,42.10
2022-08-05T15:17:45.807Z,42.59
2022-08-05T15:20:17.229Z,42.88
2022-08-05T15:22:54.370Z,42.78
2022-08-05T15:25:51.887Z,42.98
2022-08-05T15:28:16.174Z,43.26
2022-08-05T15:30:45.828Z,43.22
2022-08-05T15:34:05.979Z,42.82
2022-08-05T15:36:04.415Z,42.60
2022-08-05T15:38:36.466Z,41.89
2022-08-05T15:41:22.507Z,41.69
2022-08-05T15:43:51.790Z,42.39
2022-08-05T15:46:21.458Z,42.73
2022-08-05T15:49:00.618Z,42.66
2022-08-05T15:52:13.398Z,42.67
2022-08-05T15:54:34.491Z,42.29
2022-08-05T15:57:07.327Z,42.22
2022-08-05T15:59:38.106Z,43.06
2022-08-05T16:02:09.725Z,43.25
2022-08-05T16:04:43.298Z,42.46
2022-08-05T16:07:13.203Z,41.12
2022-08-05T16:09:43.466Z,40.32
2022-08-05T16:12:13.265Z,39.87
2022-08-05T16:14:43.644Z,39.20
2022-08-05T16:17:12.776Z,38.49
2022-08-05T16:20:05.576Z,38.17
2022-08-05T16:22:33.975Z,38.12
2022-08-05T16:25:07.866Z,37.80
2022-08-05T16:27:46.952Z,37.63
2022-08-05T16:30:29.404Z,37.57
2022-08-05T16:32:57.968Z,37.62
2022-08-05T16:35:28.301Z,37.58
2022-08-05T16:38:02.384Z,37.58
2022-08-05T16:40:52.001Z,37.39
2022-08-05T16:43:32.283Z,37.38
2022-08-05T16:46:04.278Z,37.23
2022-08-05T16:48:37.723Z,37.07
2022-08-05T16:51:09.869Z,36.52
2022-08-05T16:54:03.187Z,36.54
2022-08-05T16:56:30.387Z,36.47
2022-08-05T16:59:00.886Z,36.47
2022-08-05T17:01:54.783Z,36.49
2022-08-05T17:04:26.872Z,36.39
2022-08-05T17:07:00.179Z,36.45
2022-08-05T17:09:29.995Z,36.47
2022-08-05T17:11:59.841Z,36.35
2022-08-05T17:14:34.404Z,36.17
2022-08-05T17:17:06.781Z,36.07
2022-08-05T17:19:45.565Z,35.99
2022-08-05T17:22:24.366Z,35.95
2022-08-05T17:24:58.009Z,35.87
2022-08-05T17:27:33.712Z,35.79
2022-08-05T17:30:11.989Z,35.68
2022-08-05T17:32:47.168Z,35.65
2022-08-05T17:35:20.713Z,35.49
2022-08-05T17:37:50.564Z,35.35
2022-08-05T17:40:22.492Z,35.28
2022-08-05T17:42:52.823Z,35.17
2022-08-05T17:45:37.940Z,35.07
2022-08-05T17:48:08.051Z,34.92
2022-08-05T17:50:36.379Z,34.74
2022-08-05T17:53:08.343Z,34.66
2022-08-05T17:55:37.570Z,34.55
2022-08-05T17:58:09.704Z,34.47
2022-08-05T18:00:45.093Z,34.40
2022-08-05T18:06:11.313Z,34.01
2022-08-05T18:08:44.911Z,33.91
2022-08-05T18:11:23.153Z,33.83
2022-08-05T18:13:53.102Z,33.73
2022-08-05T18:16:22.653Z,33.65
2022-08-05T18:18:50.937Z,33.48
2022-08-05T18:21:21.233Z,33.35
2022-08-05T18:23:54.282Z,33.21
2022-08-05T18:26:29.602Z,33.12
2022-08-05T18:29:00.625Z,33.02
2022-08-05T18:31:33.775Z,32.78
2022-08-05T18:34:05.962Z,32.64
2022-08-05T18:36:36.384Z,32.49
2022-08-05T18:39:09.630Z,32.32
2022-08-05T18:41:55.691Z,32.19
2022-08-05T18:44:34.618Z,32.11
2022-08-05T18:47:05.459Z,31.91
2022-08-05T18:49:58.183Z,31.99
2022-08-05T18:52:36.194Z,32.10
2022-08-05T18:55:10.615Z,32.14
2022-08-05T18:57:43.229Z,31.85
2022-08-05T19:00:20.826Z,31.82
2022-08-05T19:02:54.734Z,31.58
2022-08-05T19:06:13.369Z,31.52
2022-08-05T19:08:12.249Z,31.29
2022-08-05T19:10:42.168Z,31.12
2022-08-05T19:13:12.479Z,30.91
2022-08-05T19:15:58.260Z,30.66
2022-08-05T19:18:30.467Z,30.58
2022-08-05T19:20:59.670Z,30.63
2022-08-05T19:24:07.090Z,30.52
2022-08-05T19:26:19.925Z,30.42
2022-08-05T19:28:48.030Z,30.32
2022-08-05T19:31:19.522Z,30.18
2022-08-05T19:33:56.019Z,30.11
2022-08-05T19:36:26.093Z,30.05
2022-08-05T19:38:55.196Z,29.94
2022-08-05T19:41:58.434Z,29.90
2022-08-05T19:44:18.804Z,29.72
2022-08-05T19:46:47.308Z,29.81
2022-08-05T19:49:20.135Z,30.01
2022-08-05T19:52:08.807Z,30.07
2022-08-05T19:54:37.207Z,30.05
2022-08-05T19:57:09.491Z,30.02
2022-08-05T19:59:56.195Z,29.98
2022-08-05T20:02:31.265Z,29.82
2022-08-05T20:05:01.191Z,29.75
2022-08-05T20:07:46.771Z,29.59
2022-08-05T20:10:16.621Z,29.62
2022-08-05T20:12:47.983Z,29.42
2022-08-05T20:15:23.374Z,29.50
2022-08-05T20:18:10.320Z,29.39
2022-08-05T20:20:56.917Z,29.36
2022-08-05T20:23:39.929Z,29.29
2022-08-05T20:26:16.423Z,29.35
2022-08-05T20:28:48.589Z,29.38
2022-08-05T20:31:17.209Z,29.20
2022-08-05T20:33:45.971Z,29.03
2022-08-05T20:36:18.055Z,28.98
2022-08-05T20:38:54.068Z,28.99
2022-08-05T20:41:43.971Z,28.98
2022-08-05T20:44:17.074Z,28.96
2022-08-05T20:46:48.206Z,28.79
2022-08-05T20:49:18.492Z,28.49
2022-08-05T20:51:54.358Z,28.43
2022-08-05T20:54:22.777Z,28.34
2022-08-05T20:56:53.086Z,28.31
2022-08-05T20:59:27.103Z,28.30
2022-08-05T21:02:09.502Z,28.37
2022-08-05T21:04:39.139Z,28.30
2022-08-05T21:07:09.202Z,28.21
2022-08-05T21:09:37.357Z,28.19
2022-08-05T21:12:19.924Z,28.06
2022-08-05T21:14:48.290Z,28.02
2022-08-05T21:17:16.745Z,28.00
2022-08-05T21:19:48.018Z,27.95
2022-08-05T21:22:23.247Z,27.98
2022-08-05T21:24:52.660Z,27.92
2022-08-05T21:27:24.629Z,27.83
2022-08-05T21:29:53.979Z,27.71
2022-08-05T21:32:27.692Z,27.62
2022-08-05T21:35:16.857Z,27.60
2022-08-05T21:37:53.058Z,27.51
2022-08-05T21:40:23.294Z,27.45
2022-08-05T21:42:52.992Z,27.36
2022-08-05T21:45:25.223Z,27.21
2022-08-05T21:48:11.258Z,27.17
2022-08-05T21:50:42.128Z,27.16
2022-08-05T21:53:27.048Z,27.21
2022-08-05T21:56:05.809Z,27.20
2022-08-05T21:58:56.912Z,27.07
2022-08-05T22:01:26.781Z,27.06
2022-08-05T22:03:55.258Z,27.04
2022-08-05T22:06:35.548Z,27.02
2022-08-05T22:09:13.984Z,26.99
2022-08-05T22:11:43.612Z,26.90
2022-08-05T22:14:33.030Z,26.78
2022-08-05T22:17:03.875Z,26.77
2022-08-05T22:20:03.196Z,26.69
2022-08-05T22:22:27.264Z,26.62
2022-08-05T22:25:21.327Z,26.56
2022-08-05T22:28:11.211Z,26.47
2022-08-05T22:30:44.191Z,26.39
2022-08-05T22:33:57.050Z,26.29
2022-08-05T22:36:14.599Z,26.34
2022-08-05T22:38:47.940Z,26.28
2022-08-05T22:42:05.071Z,26.26
2022-08-05T22:44:08.274Z,26.23
2022-08-05T22:46:40.096Z,26.19
2022-08-05T22:49:23.578Z,25.98
2022-08-05T22:52:04.395Z,25.98
2022-08-05T22:54:35.223Z,25.94
2022-08-05T22:57:05.644Z,25.67
2022-08-05T22:59:44.008Z,25.68
2022-08-05T23:02:16.751Z,25.69
2022-08-05T23:04:51.889Z,25.71
2022-08-05T23:07:21.860Z,25.71
2022-08-05T23:09:57.637Z,25.69
2022-08-05T23:12:33.312Z,25.68
2022-08-05T23:15:03.571Z,25.59
2022-08-05T23:17:37.469Z,25.54
2022-08-05T23:20:21.687Z,25.56
2022-08-05T23:22:56.118Z,25.44
2022-08-05T23:25:51.904Z,25.44
2022-08-05T23:28:15.976Z,25.42
2022-08-05T23:30:53.088Z,25.43
2022-08-05T23:33:26.080Z,25.41
2022-08-05T23:36:13.511Z,25.36
2022-08-05T23:38:43.551Z,25.30
2022-08-05T23:41:12.408Z,25.22
2022-08-05T23:44:05.581Z,25.20
2022-08-05T23:46:30.809Z,25.02
2022-08-05T23:49:00.412Z,24.97
2022-08-05T23:51:52.422Z,24.87
2022-08-05T23:54:25.695Z,24.87
2022-08-05T23:56:58.223Z,24.82
